Time;durP1;ratioP1;P1;durP2;ratioP2;P2;SDS_P1;SDS_P2;PMS_P1;PMS_P2;Temp;Humidity;BMP_temperature;BMP_pressure;BME280_temperature;BME280_humidity;BME280_pressure;Samples;Min_cycle;Max_cycle;Signal;HPM_P1;HPM_P2
2021/04/20 00:02:31;;;;;;;5.60;4.00;;;16.60;31.20;;;;;;8399864;28;20117;-55
2021/04/20 00:06:32;;;;;;;7.20;4.73;;;16.60;31.20;;;;;;8393522;28;20047;-55
2021/04/20 00:10:33;;;;;;;7.63;4.30;;;16.60;31.20;;;;;;8395079;28;20055;-55
2021/04/20 00:14:34;;;;;;;5.90;4.22;;;16.60;31.30;;;;;;8394301;28;20037;-55
2021/04/20 00:18:35;;;;;;;6.45;4.22;;;16.60;31.30;;;;;;8394662;28;20047;-55
2021/04/20 00:22:35;;;;;;;6.80;4.47;;;16.50;31.20;;;;;;8398567;28;20036;-55
2021/04/20 00:26:36;;;;;;;6.50;4.23;;;16.50;31.20;;;;;;8371668;28;20036;-55
2021/04/20 00:30:37;;;;;;;5.87;4.63;;;16.50;31.30;;;;;;8373990;28;20082;-55
2021/04/20 00:34:37;;;;;;;6.57;4.40;;;16.50;31.20;;;;;;8394640;28;20085;-55
2021/04/20 00:38:39;;;;;;;6.10;3.90;;;16.50;31.20;;;;;;8398582;28;20079;-55
2021/04/20 00:42:46;;;;;;;5.90;4.13;;;16.50;31.30;;;;;;8391774;28;20062;-55
2021/04/20 00:46:47;;;;;;;5.43;3.92;;;16.50;31.30;;;;;;8393882;28;20032;-55
2021/04/20 00:50:47;;;;;;;5.87;4.23;;;16.50;31.20;;;;;;8393887;28;20121;-55
2021/04/20 00:54:48;;;;;;;5.97;4.30;;;16.50;31.30;;;;;;8396855;28;20029;-55
2021/04/20 00:58:48;;;;;;;5.70;3.80;;;16.50;31.30;;;;;;8393586;28;20036;-54
2021/04/20 01:02:50;;;;;;;6.43;4.53;;;16.50;31.30;;;;;;8391847;28;20090;-51
2021/04/20 01:06:51;;;;;;;7.13;4.63;;;16.40;31.30;;;;;;8393220;28;20086;-55
2021/04/20 01:10:54;;;;;;;6.40;4.07;;;16.40;31.40;;;;;;8393481;28;20173;-55
2021/04/20 01:14:55;;;;;;;5.75;4.18;;;16.50;31.40;;;;;;8394596;28;20041;-54
2021/04/20 01:18:56;;;;;;;7.32;3.95;;;16.40;31.40;;;;;;8368781;28;20447;-55
2021/04/20 01:22:58;;;;;;;6.60;4.23;;;16.40;31.40;;;;;;8392638;28;20049;-55
2021/04/20 01:27:00;;;;;;;6.07;3.80;;;16.50;31.40;;;;;;8383753;28;20029;-55
2021/04/20 01:31:01;;;;;;;4.57;3.80;;;16.40;31.40;;;;;;8364240;28;20033;-55
2021/04/20 01:35:01;;;;;;;6.88;4.60;;;16.40;31.50;;;;;;8389824;28;20029;-55
2021/04/20 01:39:05;;;;;;;6.40;4.23;;;16.40;31.50;;;;;;8390555;28;20056;-55
2021/04/20 01:43:06;;;;;;;5.50;4.10;;;16.40;31.50;;;;;;8392363;28;20059;-55
2021/04/20 01:47:08;;;;;;;5.70;3.80;;;16.40;31.50;;;;;;8391984;28;20043;-56
2021/04/20 01:51:09;;;;;;;5.72;4.38;;;16.40;31.60;;;;;;8382980;28;20075;-54
2021/04/20 01:55:11;;;;;;;7.13;4.07;;;16.40;31.60;;;;;;8391992;28;20094;-55
2021/04/20 01:59:12;;;;;;;6.03;4.00;;;16.40;31.50;;;;;;8390840;28;20045;-55
2021/04/20 02:03:13;;;;;;;6.95;4.50;;;16.40;31.50;;;;;;8389669;28;20373;-55
2021/04/20 02:07:13;;;;;;;5.53;3.90;;;16.40;31.60;;;;;;8395879;28;20041;-55
2021/04/20 02:11:18;;;;;;;7.70;4.57;;;16.40;31.60;;;;;;8391139;28;20512;-55
2021/04/20 02:15:19;;;;;;;6.03;4.35;;;16.30;31.60;;;;;;8389680;28;20044;-55
2021/04/20 02:19:20;;;;;;;6.60;4.07;;;16.40;31.70;;;;;;8382582;28;20069;-55
2021/04/20 02:23:21;;;;;;;6.35;4.80;;;16.30;31.70;;;;;;8360412;28;20384;-55
2021/04/20 02:27:22;;;;;;;9.67;4.50;;;16.30;31.70;;;;;;8392438;28;20028;-55
2021/04/20 02:31:22;;;;;;;8.73;4.93;;;16.40;31.70;;;;;;8391133;28;20560;-55
2021/04/20 02:35:27;;;;;;;6.33;4.70;;;16.30;31.70;;;;;;8391503;28;20502;-55
2021/04/20 02:39:28;;;;;;;9.40;4.85;;;16.30;31.70;;;;;;8388900;28;20435;-55
2021/04/20 02:43:29;;;;;;;7.38;4.60;;;16.30;31.70;;;;;;8395268;28;20387;-54
2021/04/20 02:47:30;;;;;;;8.75;5.13;;;16.30;31.70;;;;;;8363789;27;20037;-54
2021/04/20 02:51:33;;;;;;;9.57;5.83;;;16.30;31.70;;;;;;8374694;28;20036;-54
2021/04/20 02:55:34;;;;;;;8.52;5.35;;;16.30;31.70;;;;;;8390974;28;20037;-55
2021/04/20 02:59:36;;;;;;;11.60;5.37;;;16.30;31.70;;;;;;8395114;28;20039;-55
2021/04/20 03:03:38;;;;;;;7.95;5.10;;;16.30;31.70;;;;;;8388750;28;20082;-53
2021/04/20 03:07:39;;;;;;;6.63;4.72;;;16.20;31.70;;;;;;8390486;28;20028;-55
2021/04/20 03:11:49;;;;;;;6.57;4.83;;;16.20;31.70;;;;;;8378741;28;20575;-55
2021/04/20 03:15:50;;;;;;;7.95;4.75;;;16.20;31.70;;;;;;8360040;28;20083;-53
2021/04/20 03:19:51;;;;;;;7.47;4.93;;;16.20;31.60;;;;;;8395082;28;20115;-54
2021/04/20 03:23:53;;;;;;;10.00;5.00;;;16.20;31.60;;;;;;8388624;28;20044;-54
2021/04/20 03:27:54;;;;;;;;;;;16.20;31.60;;;;;;8390402;28;20036;-54
2021/04/20 03:31:55;;;;;;;6.88;4.40;;;16.20;31.60;;;;;;8390131;28;19909;-54
2021/04/20 03:36:12;;;;;;;7.93;4.70;;;16.20;31.60;;;;;;8393124;28;20071;-54
2021/04/20 03:40:14;;;;;;;8.07;4.60;;;16.10;31.70;;;;;;8360308;28;20505;-54
2021/04/20 03:44:35;;;;;;;6.95;4.70;;;16.20;31.60;;;;;;8380745;28;20079;-54
2021/04/20 03:48:40;;;;;;;6.37;4.20;;;16.20;31.60;;;;;;8389507;28;20067;-54
2021/04/20 03:52:47;;;;;;;8.70;4.70;;;16.10;31.60;;;;;;8394412;28;20033;-53
2021/04/20 03:56:50;;;;;;;5.80;4.50;;;16.10;31.60;;;;;;8399856;28;20082;-54
2021/04/20 04:00:55;;;;;;;7.78;4.97;;;16.10;31.60;;;;;;8393798;28;20036;-54
2021/04/20 04:04:57;;;;;;;8.13;4.45;;;16.10;31.60;;;;;;8373260;28;20096;-54
2021/04/20 04:08:58;;;;;;;6.75;4.55;;;16.10;31.60;;;;;;8373753;28;20037;-54
2021/04/20 04:13:08;;;;;;;7.97;4.97;;;16.10;31.60;;;;;;8395378;28;20447;-54
2021/04/20 04:17:12;;;;;;;7.40;4.80;;;16.10;31.60;;;;;;8399432;28;20383;-54
2021/04/20 04:21:20;;;;;;;7.75;5.22;;;16.10;31.60;;;;;;8393563;28;20037;-54
2021/04/20 04:25:26;;;;;;;7.25;4.43;;;16.10;31.60;;;;;;8394660;28;20051;-54
2021/04/20 04:29:27;;;;;;;8.32;5.13;;;16.10;31.60;;;;;;8384823;28;20037;-54
2021/04/20 04:33:28;;;;;;;7.72;4.78;;;16.10;31.50;;;;;;8360745;28;20087;-54
2021/04/20 04:37:29;;;;;;;5.43;4.18;;;16.10;32.10;;;;;;8398647;28;20366;-54
2021/04/20 04:41:30;;;;;;;5.97;4.30;;;16.10;31.60;;;;;;8394149;28;20044;-54
2021/04/20 04:45:31;;;;;;;6.27;4.17;;;16.10;31.60;;;;;;8392192;28;20040;-54
2021/04/20 04:49:33;;;;;;;7.22;4.93;;;16.10;31.60;;;;;;8393803;28;20046;-54
2021/04/20 04:53:34;;;;;;;9.60;4.82;;;16.10;31.60;;;;;;8398210;28;20063;-54
2021/04/20 04:57:35;;;;;;;5.93;4.25;;;16.10;31.60;;;;;;8385636;28;20036;-54
2021/04/20 05:01:36;;;;;;;;;;;16.10;31.60;;;;;;8375541;28;20119;-55
2021/04/20 05:05:38;;;;;;;8.35;4.75;;;16.10;32.10;;;;;;8392975;28;19920;-55
2021/04/20 05:09:39;;;;;;;7.80;4.78;;;16.10;31.60;;;;;;8395993;28;20025;-55
2021/04/20 05:13:40;;;;;;;6.03;4.43;;;16.10;31.60;;;;;;8390539;28;20143;-55
2021/04/20 05:17:41;;;;;;;6.80;4.40;;;16.10;31.60;;;;;;8392599;28;20036;-54
2021/04/20 05:21:42;;;;;;;8.32;4.93;;;16.10;31.60;;;;;;8372350;28;20033;-55
2021/04/20 05:25:43;;;;;;;8.23;4.70;;;16.10;31.60;;;;;;8329365;28;20502;-55
2021/04/20 05:29:44;;;;;;;7.28;4.55;;;16.10;31.60;;;;;;8388018;28;20070;-55
2021/04/20 05:33:44;;;;;;;7.43;5.20;;;16.10;31.60;;;;;;8390558;28;20028;-55
2021/04/20 05:37:46;;;;;;;6.80;4.67;;;16.10;31.60;;;;;;8392332;28;20140;-55
2021/04/20 05:41:47;;;;;;;8.00;4.78;;;16.10;31.60;;;;;;8391846;28;20029;-55
2021/04/20 05:45:47;;;;;;;7.57;4.37;;;16.10;31.60;;;;;;8394673;28;20048;-55
2021/04/20 05:49:49;;;;;;;7.30;4.40;;;16.10;31.60;;;;;;8382054;28;20037;-55
2021/04/20 05:53:52;;;;;;;6.68;4.50;;;16.10;31.60;;;;;;8389771;28;20024;-54
2021/04/20 05:57:54;;;;;;;6.38;4.22;;;16.10;31.60;;;;;;8367457;28;20075;-55
2021/04/20 06:01:55;;;;;;;6.70;4.57;;;16.20;31.50;;;;;;8391663;28;20090;-55
2021/04/20 06:05:57;;;;;;;6.47;4.53;;;16.20;31.50;;;;;;8394665;28;20451;-55
2021/04/20 06:09:58;;;;;;;8.10;4.65;;;16.30;31.50;;;;;;8391638;28;20408;-55
2021/04/20 06:13:58;;;;;;;9.10;5.00;;;16.30;31.40;;;;;;8390972;28;20048;-55
2021/04/20 06:17:59;;;;;;;6.97;4.47;;;16.30;31.30;;;;;;8389428;28;20089;-55
2021/04/20 06:22:00;;;;;;;7.80;4.88;;;16.30;31.30;;;;;;8395245;28;20462;-55
2021/04/20 06:26:03;;;;;;;6.73;4.60;;;16.40;31.20;;;;;;8391271;28;20048;-55
2021/04/20 06:30:06;;;;;;;7.15;4.43;;;16.40;31.20;;;;;;8389441;28;20501;-55
2021/04/20 06:34:07;;;;;;;6.30;4.57;;;16.50;31.20;;;;;;8391220;28;20033;-55
2021/04/20 06:38:12;;;;;;;6.57;4.70;;;16.50;31.10;;;;;;8395522;28;20032;-55
2021/04/20 06:42:20;;;;;;;7.35;4.15;;;16.50;31.00;;;;;;8358917;28;20029;-55
2021/04/20 06:46:40;;;;;;;6.13;4.38;;;16.60;31.00;;;;;;8382304;28;20052;-55
2021/04/20 06:50:43;;;;;;;6.80;4.45;;;16.70;30.90;;;;;;8389653;28;20074;-55
2021/04/20 06:54:52;;;;;;;7.40;4.35;;;16.80;30.80;;;;;;8373767;28;20029;-56
2021/04/20 06:59:27;;;;;;;8.38;4.15;;;16.90;30.60;;;;;;8329114;28;20397;-55
2021/04/20 07:03:51;;;;;;;6.93;4.10;;;16.90;30.40;;;;;;8327138;28;20445;-55
2021/04/20 07:08:06;;;;;;;6.22;4.18;;;16.90;30.40;;;;;;8371901;28;20059;-56
2021/04/20 07:12:08;;;;;;;6.47;4.22;;;16.90;30.40;;;;;;8389012;28;20472;-56
2021/04/20 07:16:11;;;;;;;;;;;17.00;30.50;;;;;;8391031;28;20037;-55
2021/04/20 07:20:30;;;;;;;5.78;4.50;;;16.90;30.50;;;;;;8390020;28;20019;-55
2021/04/20 07:25:01;;;;;;;5.97;4.20;;;16.90;30.60;;;;;;8396793;28;20045;-55
2021/04/20 07:29:08;;;;;;;5.88;4.28;;;16.80;30.70;;;;;;8366609;28;20056;-56
2021/04/20 07:33:33;;;;;;;7.55;4.85;;;16.80;30.80;;;;;;8386111;28;20422;-55
2021/04/20 07:37:48;;;;;;;8.07;4.80;;;16.90;30.90;;;;;;8396115;28;20485;-55
2021/04/20 07:41:56;;;;;;;7.38;4.68;;;16.90;30.90;;;;;;8394619;28;20079;-50
2021/04/20 07:46:12;;;;;;;7.63;4.70;;;16.90;30.90;;;;;;8395500;28;20076;-55
2021/04/20 07:50:18;;;;;;;5.93;4.38;;;16.90;30.90;;;;;;8399942;28;20416;-56
2021/04/20 07:54:34;;;;;;;5.28;4.13;;;16.80;31.00;;;;;;8394132;28;20478;-54
2021/04/20 07:58:43;;;;;;;6.95;4.18;;;16.80;31.00;;;;;;8376596;28;20045;-55
2021/04/20 08:02:59;;;;;;;6.53;4.43;;;16.80;31.10;;;;;;8373473;28;20059;-54
2021/04/20 08:07:08;;;;;;;5.57;3.83;;;16.80;31.20;;;;;;8393835;28;20032;-56
2021/04/20 08:11:14;;;;;;;4.60;3.67;;;16.80;31.20;;;;;;8399821;28;20032;-54
2021/04/20 08:15:22;;;;;;;6.68;4.05;;;16.80;31.20;;;;;;8393100;28;20127;-54
2021/04/20 08:19:32;;;;;;;4.63;3.65;;;16.80;31.30;;;;;;8395306;28;20135;-56
2021/04/20 08:23:39;;;;;;;6.18;3.45;;;16.80;31.30;;;;;;8393982;28;20051;-54
2021/04/20 08:28:07;;;;;;;5.70;3.63;;;16.80;31.30;;;;;;8392860;28;20028;-54
2021/04/20 08:32:13;;;;;;;5.00;3.70;;;16.80;31.40;;;;;;8399080;28;20397;-56
2021/04/20 08:36:38;;;;;;;4.45;3.15;;;16.80;31.40;;;;;;8392734;28;20066;-55
2021/04/20 08:40:47;;;;;;;5.20;3.50;;;16.80;31.40;;;;;;8394098;28;20048;-55
2021/04/20 08:45:25;;;;;;;6.97;3.70;;;16.80;31.40;;;;;;8394016;28;20497;-55
2021/04/20 08:49:45;;;;;;;4.30;3.20;;;16.80;31.40;;;;;;8363734;28;20045;-55
2021/04/20 08:53:51;;;;;;;6.93;3.70;;;16.90;31.50;;;;;;8363592;28;20119;-55
2021/04/20 08:58:13;;;;;;;4.25;3.20;;;16.90;31.50;;;;;;8396889;28;20039;-55
2021/04/20 09:02:23;;;;;;;5.40;3.42;;;16.90;31.50;;;;;;8393519;28;20037;-55
2021/04/20 09:06:44;;;;;;;3.95;3.08;;;16.90;31.50;;;;;;8392106;28;20127;-55
2021/04/20 09:10:50;;;;;;;5.53;3.45;;;16.90;31.50;;;;;;8393632;28;20036;-55
2021/04/20 09:14:53;;;;;;;5.05;3.40;;;16.90;31.50;;;;;;8386993;28;20055;-55
2021/04/20 09:18:54;;;;;;;5.50;3.60;;;17.00;31.60;;;;;;8363047;28;20425;-55
2021/04/20 09:23:02;;;;;;;4.83;3.77;;;17.00;31.60;;;;;;8387343;27;20189;-55
2021/04/20 09:27:11;;;;;;;4.30;3.15;;;17.00;31.50;;;;;;8391005;28;20035;-55
2021/04/20 09:31:18;;;;;;;4.30;3.05;;;17.00;31.60;;;;;;8392636;28;20033;-55
2021/04/20 09:35:19;;;;;;;4.30;2.90;;;17.00;31.50;;;;;;8392737;28;20036;-55
2021/04/20 09:39:21;;;;;;;4.53;2.90;;;17.10;31.60;;;;;;8395118;28;20042;-55
2021/04/20 09:43:28;;;;;;;5.43;3.50;;;17.10;31.50;;;;;;8366403;28;20048;-55
2021/04/20 09:47:56;;;;;;;5.28;3.35;;;17.10;31.60;;;;;;8375726;28;20347;-55
2021/04/20 09:52:06;;;;;;;4.60;2.72;;;17.10;31.60;;;;;;8390499;28;20361;-56
2021/04/20 09:56:16;;;;;;;3.60;2.95;;;17.10;31.60;;;;;;8391846;28;20082;-55
2021/04/20 10:00:18;;;;;;;5.78;3.55;;;17.10;31.60;;;;;;8395067;28;20036;-55
2021/04/20 10:04:42;;;;;;;5.03;2.95;;;17.20;31.50;;;;;;8391412;28;20497;-55
2021/04/20 10:09:08;;;;;;;3.60;2.53;;;17.20;31.50;;;;;;8371121;28;20026;-55
2021/04/20 10:13:27;;;;;;;5.82;3.05;;;17.30;31.50;;;;;;8349488;28;20029;-54
2021/04/20 10:17:37;;;;;;;5.60;2.97;;;17.30;31.50;;;;;;8391325;28;20032;-55
2021/04/20 10:22:09;;;;;;;3.65;3.30;;;17.30;31.40;;;;;;8393879;28;20032;-55
2021/04/20 10:26:30;;;;;;;4.10;3.22;;;17.30;31.30;;;;;;8362179;28;20072;-57
2021/04/20 10:30:34;;;;;;;4.50;2.78;;;17.40;31.30;;;;;;8383348;28;20041;-55
2021/04/20 10:34:36;;;;;;;4.38;2.58;;;17.40;31.30;;;;;;8390346;28;20497;-55
2021/04/20 10:38:37;;;;;;;4.60;2.70;;;17.40;31.20;;;;;;8366274;28;20043;-55
2021/04/20 10:42:40;;;;;;;5.65;3.17;;;17.40;31.20;;;;;;8389781;28;20039;-55
2021/04/20 10:46:42;;;;;;;4.20;3.20;;;17.40;31.20;;;;;;8394259;28;20481;-55
2021/04/20 10:50:48;;;;;;;4.40;3.00;;;17.50;31.20;;;;;;8365487;28;20040;-55
2021/04/20 10:54:50;;;;;;;3.35;2.65;;;17.50;31.10;;;;;;8389247;28;20037;-55
2021/04/20 10:58:55;;;;;;;;;;;17.50;31.10;;;;;;8394388;28;20385;-55
2021/04/20 11:02:59;;;;;;;3.40;2.38;;;17.50;31.10;;;;;;8399825;28;19966;-55
2021/04/20 11:07:26;;;;;;;3.97;2.65;;;17.60;31.20;;;;;;8397371;28;20491;-55
2021/04/20 11:11:26;;;;;;;4.40;2.55;;;17.60;31.20;;;;;;8397062;28;20078;-54
2021/04/20 11:15:29;;;;;;;3.63;2.63;;;17.60;31.00;;;;;;8382441;28;20029;-55
2021/04/20 11:19:32;;;;;;;4.65;2.90;;;17.60;31.10;;;;;;8367192;28;20121;-54
2021/04/20 11:23:37;;;;;;;3.80;2.55;;;17.70;31.00;;;;;;8400784;28;20036;-55
2021/04/20 11:27:41;;;;;;;3.88;2.92;;;17.70;31.00;;;;;;8367511;28;20554;-55
2021/04/20 11:31:47;;;;;;;4.00;2.72;;;17.70;30.90;;;;;;8382015;28;20089;-55
2021/04/20 11:35:49;;;;;;;4.07;3.00;;;17.70;31.00;;;;;;8396244;28;20048;-55
2021/04/20 11:39:51;;;;;;;;;;;17.70;30.90;;;;;;8398158;28;20374;-55
2021/04/20 11:43:56;;;;;;;4.10;2.75;;;17.80;30.90;;;;;;8398560;28;20420;-55
2021/04/20 11:48:05;;;;;;;3.67;2.63;;;17.80;31.00;;;;;;8393722;28;20044;-54
2021/04/20 11:52:20;;;;;;;3.63;2.63;;;17.80;30.90;;;;;;8385231;28;20033;-55
2021/04/20 11:56:21;;;;;;;3.72;2.85;;;17.80;30.90;;;;;;8381040;28;20124;-55
2021/04/20 12:00:28;;;;;;;4.30;2.60;;;17.80;30.90;;;;;;8393642;28;20040;-56
2021/04/20 12:04:46;;;;;;;3.92;2.40;;;17.90;30.90;;;;;;8363983;28;20072;-56
2021/04/20 12:08:53;;;;;;;3.75;2.50;;;17.90;31.40;;;;;;8362039;28;20044;-55
2021/04/20 12:12:54;;;;;;;3.83;2.47;;;17.90;30.80;;;;;;8352060;28;20039;-56
2021/04/20 12:16:59;;;;;;;3.50;2.45;;;17.90;30.80;;;;;;8389409;28;20041;-55
2021/04/20 12:21:04;;;;;;;3.97;2.70;;;17.90;30.70;;;;;;8363304;28;20021;-54
2021/04/20 12:25:07;;;;;;;3.58;2.70;;;18.00;30.70;;;;;;8368919;28;20040;-56
2021/04/20 12:29:13;;;;;;;4.18;2.72;;;18.00;30.70;;;;;;8394453;28;20044;-56
2021/04/20 12:33:31;;;;;;;3.97;2.83;;;18.00;30.40;;;;;;8382039;28;20037;-55
2021/04/20 12:37:34;;;;;;;3.22;2.42;;;18.10;30.60;;;;;;8365638;28;20099;-55
2021/04/20 12:41:36;;;;;;;4.10;2.10;;;18.10;30.30;;;;;;8397378;28;20131;-55
2021/04/20 12:45:39;;;;;;;3.05;2.28;;;18.10;30.30;;;;;;8390755;28;20405;-55
2021/04/20 12:49:46;;;;;;;3.22;2.28;;;18.10;30.40;;;;;;8394389;28;20036;-55
2021/04/20 12:53:49;;;;;;;4.15;2.42;;;18.10;30.40;;;;;;8393968;28;20462;-56
2021/04/20 12:57:51;;;;;;;4.50;2.60;;;18.20;30.10;;;;;;8395530;28;20056;-56
2021/04/20 13:01:54;;;;;;;3.40;2.50;;;18.20;30.30;;;;;;8395677;28;20037;-55
2021/04/20 13:05:55;;;;;;;3.42;2.50;;;18.20;30.30;;;;;;8391385;28;20688;-55
2021/04/20 13:10:00;;;;;;;2.88;2.38;;;18.20;30.20;;;;;;8379880;28;20038;-55
2021/04/20 13:14:02;;;;;;;2.90;2.20;;;18.20;30.30;;;;;;8365215;28;20020;-56
2021/04/20 13:18:18;;;;;;;2.92;2.55;;;18.20;30.10;;;;;;8395614;28;20041;-53
2021/04/20 13:22:24;;;;;;;2.60;2.08;;;18.30;30.00;;;;;;8392805;28;20481;-55
2021/04/20 13:26:26;;;;;;;4.40;2.78;;;18.30;30.00;;;;;;8392732;28;20276;-56
2021/04/20 13:30:28;;;;;;;3.50;2.20;;;18.30;29.90;;;;;;8390834;28;20072;-56
2021/04/20 13:34:41;;;;;;;3.47;2.58;;;18.30;30.00;;;;;;8391029;28;20371;-55
2021/04/20 13:38:54;;;;;;;2.05;1.80;;;18.30;30.00;;;;;;8363671;28;20056;-55
2021/04/20 13:43:02;;;;;;;2.85;2.30;;;18.40;30.10;;;;;;8386167;28;20055;-54
2021/04/20 13:47:04;;;;;;;3.65;2.17;;;18.30;29.80;;;;;;8391815;28;20040;-56
2021/04/20 13:51:05;;;;;;;2.92;2.00;;;18.30;30.00;;;;;;8389879;28;20472;-56
2021/04/20 13:55:20;;;;;;;2.90;1.97;;;18.30;30.00;;;;;;8393343;28;20083;-50
2021/04/20 13:59:25;;;;;;;2.28;2.08;;;18.40;30.00;;;;;;8362886;28;20053;-55
2021/04/20 14:03:33;;;;;;;3.10;2.45;;;18.40;29.90;;;;;;8356899;28;20076;-56
2021/04/20 14:07:37;;;;;;;4.03;2.20;;;18.40;29.80;;;;;;8376156;28;20576;-56
2021/04/20 14:12:04;;;;;;;2.60;2.03;;;18.40;29.80;;;;;;8391331;28;20032;-55
2021/04/20 14:16:16;;;;;;;3.20;2.40;;;18.40;30.00;;;;;;8390002;28;20040;-54
2021/04/20 14:20:26;;;;;;;3.30;2.30;;;18.40;29.90;;;;;;8396350;28;20040;-55
2021/04/20 14:24:27;;;;;;;3.33;2.40;;;18.40;29.80;;;;;;8361763;28;20098;-55
2021/04/20 14:28:35;;;;;;;3.10;2.35;;;18.50;29.90;;;;;;8358584;28;20072;-55
2021/04/20 14:32:39;;;;;;;2.60;2.10;;;18.50;29.90;;;;;;8366854;28;20170;-56
2021/04/20 14:36:41;;;;;;;5.82;2.25;;;18.50;29.90;;;;;;8392542;28;20066;-55
2021/04/20 14:40:46;;;;;;;2.55;2.28;;;18.50;29.70;;;;;;8393130;28;20032;-56
2021/04/20 14:44:47;;;;;;;2.50;1.80;;;18.50;29.50;;;;;;8391513;28;20036;-56
2021/04/20 14:48:53;;;;;;;2.63;2.05;;;18.50;29.60;;;;;;8389338;28;20041;-56
2021/04/20 14:52:59;;;;;;;4.38;2.17;;;18.50;29.60;;;;;;8390734;28;20036;-56
2021/04/20 14:57:01;;;;;;;3.00;1.85;;;18.50;29.40;;;;;;8392305;28;20075;-56
2021/04/20 15:01:14;;;;;;;3.33;2.25;;;18.50;29.00;;;;;;8357370;28;20057;-55
2021/04/20 15:05:22;;;;;;;3.20;2.20;;;18.50;29.30;;;;;;8377122;28;20742;-56
2021/04/20 15:09:27;;;;;;;4.55;2.35;;;18.50;29.60;;;;;;8388792;28;20033;-56
2021/04/20 15:13:58;;;;;;;2.95;2.08;;;18.60;29.50;;;;;;8390357;28;20043;-56
2021/04/20 15:18:08;;;;;;;3.15;2.17;;;18.50;29.30;;;;;;8392794;28;20032;-53
2021/04/20 15:22:14;;;;;;;2.85;2.30;;;18.60;29.60;;;;;;8389244;28;20036;-54
2021/04/20 15:26:23;;;;;;;3.50;2.05;;;18.50;29.60;;;;;;8389396;28;20052;-56
2021/04/20 15:30:28;;;;;;;3.10;2.40;;;18.60;29.50;;;;;;8388385;28;20037;-55
2021/04/20 15:34:30;;;;;;;3.63;2.25;;;18.60;29.50;;;;;;8385168;28;20055;-55
2021/04/20 15:38:46;;;;;;;3.60;2.45;;;18.60;28.90;;;;;;8361366;28;20115;-56
2021/04/20 15:42:47;;;;;;;2.53;2.10;;;18.60;29.20;;;;;;8386525;27;20071;-56
2021/04/20 15:46:52;;;;;;;2.60;2.03;;;18.50;29.20;;;;;;8375012;28;20044;-54
2021/04/20 15:50:56;;;;;;;3.03;2.55;;;18.60;28.60;;;;;;8373614;27;20090;-55
2021/04/20 15:55:04;;;;;;;3.55;2.45;;;18.60;28.70;;;;;;8395540;28;20029;-55
2021/04/20 15:59:16;;;;;;;5.05;2.53;;;18.50;29.00;;;;;;8368359;27;20033;-56
2021/04/20 16:03:19;;;;;;;5.10;2.58;;;18.60;28.40;;;;;;8389825;28;20048;-54
2021/04/20 16:07:25;;;;;;;2.17;1.98;;;18.60;28.80;;;;;;8395710;28;20060;-56
2021/04/20 16:11:27;;;;;;;3.10;2.20;;;18.60;28.80;;;;;;8395359;28;20040;-54
2021/04/20 16:15:31;;;;;;;4.10;2.67;;;18.60;28.70;;;;;;8395834;28;20036;-54
2021/04/20 16:19:33;;;;;;;4.57;2.60;;;18.60;29.30;;;;;;8391186;28;20040;-56
2021/04/20 16:23:35;;;;;;;2.55;2.25;;;18.60;28.80;;;;;;8389090;28;20052;-56
2021/04/20 16:27:38;;;;;;;3.92;2.78;;;18.60;28.80;;;;;;8364131;28;20029;-54
2021/04/20 16:31:41;;;;;;;2.97;2.35;;;18.60;29.00;;;;;;8364851;28;20507;-55
2021/04/20 16:35:43;;;;;;;3.42;2.38;;;18.60;28.80;;;;;;8372458;28;20037;-54
2021/04/20 16:40:01;;;;;;;2.80;1.85;;;18.60;29.00;;;;;;8388176;28;20036;-52
2021/04/20 16:44:07;;;;;;;3.58;2.58;;;18.60;29.10;;;;;;8394496;28;20102;-54
2021/04/20 16:48:28;;;;;;;2.75;2.05;;;18.60;29.20;;;;;;8392198;28;20056;-55
2021/04/20 16:52:45;;;;;;;3.20;2.33;;;18.60;29.30;;;;;;8393287;28;20057;-54
2021/04/20 16:57:04;;;;;;;3.25;1.95;;;18.60;29.20;;;;;;8397239;28;20044;-55
2021/04/20 17:01:38;;;;;;;2.78;2.33;;;18.60;29.30;;;;;;8338223;28;20025;-53
2021/04/20 17:05:59;;;;;;;2.88;2.08;;;18.60;29.30;;;;;;8387115;28;20051;-54
2021/04/20 17:10:21;;;;;;;2.17;1.98;;;18.60;29.30;;;;;;8384161;28;20033;-54
2021/04/20 17:14:37;;;;;;;3.25;2.40;;;18.60;29.30;;;;;;8374090;28;20056;-53
2021/04/20 17:18:46;;;;;;;3.28;2.20;;;18.60;29.30;;;;;;8366510;28;20037;-53
2021/04/20 17:23:07;;;;;;;2.67;2.13;;;18.60;29.30;;;;;;8384690;28;20123;-54
2021/04/20 17:27:10;;;;;;;2.50;2.10;;;18.60;29.40;;;;;;8391303;28;20489;-54
2021/04/20 17:31:37;;;;;;;3.22;2.28;;;18.60;29.30;;;;;;8392013;28;20316;-54
2021/04/20 17:35:59;;;;;;;3.10;2.17;;;18.60;29.30;;;;;;8392196;28;20032;-54
2021/04/20 17:40:17;;;;;;;2.20;1.85;;;18.60;29.30;;;;;;8380720;28;20036;-54
2021/04/20 17:44:56;;;;;;;3.30;2.38;;;18.60;29.30;;;;;;8387239;28;20485;-54
2021/04/20 17:49:34;;;;;;;3.85;2.50;;;18.50;29.30;;;;;;8362120;28;20052;-53
2021/04/20 17:54:08;;;;;;;2.92;1.90;;;18.50;29.30;;;;;;8363447;28;20037;-54
2021/04/20 17:58:27;;;;;;;3.03;2.03;;;18.50;29.30;;;;;;8384090;28;20409;-52
2021/04/20 18:02:55;;;;;;;2.35;1.70;;;18.50;29.30;;;;;;8361764;28;20036;-54
2021/04/20 18:07:27;;;;;;;2.80;2.33;;;18.50;29.30;;;;;;8365329;28;20071;-54
2021/04/20 18:12:22;;;;;;;2.72;2.05;;;18.50;29.30;;;;;;8357518;28;20052;-56
2021/04/20 18:16:29;;;;;;;2.45;1.98;;;18.50;29.30;;;;;;8255572;28;20038;-56
2021/04/20 18:20:37;;;;;;;2.35;1.98;;;18.50;29.40;;;;;;8324088;28;20033;-56
2021/04/20 18:24:41;;;;;;;2.65;2.10;;;18.50;29.40;;;;;;8393916;28;20374;-56
2021/04/20 18:29:16;;;;;;;2.58;2.08;;;18.50;29.40;;;;;;8391087;28;20055;-56
2021/04/20 18:33:37;;;;;;;3.22;2.28;;;18.50;29.50;;;;;;8389104;28;20039;-55
2021/04/20 18:38:04;;;;;;;2.80;2.10;;;18.50;29.50;;;;;;8390985;28;20076;-55
2021/04/20 18:42:13;;;;;;;3.08;1.88;;;18.50;29.50;;;;;;8389343;28;20037;-55
2021/04/20 18:46:31;;;;;;;3.95;2.40;;;18.40;29.50;;;;;;8395332;28;20048;-55
2021/04/20 18:50:57;;;;;;;2.67;2.05;;;18.40;29.60;;;;;;8361860;28;20083;-54
2021/04/20 18:55:25;;;;;;;3.65;2.50;;;18.40;29.60;;;;;;8385288;28;20136;-55
2021/04/20 18:59:45;;;;;;;4.53;2.53;;;18.40;29.60;;;;;;8347355;28;20105;-55
2021/04/20 19:03:58;;;;;;;3.75;2.25;;;18.40;29.60;;;;;;8345890;28;20045;-54
2021/04/20 19:08:21;;;;;;;2.88;2.30;;;18.40;29.70;;;;;;8390980;28;20041;-56
2021/04/20 19:12:46;;;;;;;3.28;2.08;;;18.40;29.70;;;;;;8389490;28;20024;-55
2021/04/20 19:17:17;;;;;;;3.72;2.30;;;18.40;29.70;;;;;;8361588;28;20363;-55
2021/04/20 19:21:47;;;;;;;3.67;2.40;;;18.40;29.70;;;;;;8392508;28;20385;-55
2021/04/20 19:26:14;;;;;;;2.45;2.10;;;18.40;29.70;;;;;;8396482;28;20044;-54
2021/04/20 19:30:18;;;;;;;3.30;2.33;;;18.30;29.60;;;;;;8394787;28;20043;-55
2021/04/20 19:34:18;;;;;;;2.72;2.38;;;18.40;29.70;;;;;;8396244;28;20044;-54
2021/04/20 19:38:22;;;;;;;2.83;2.30;;;18.40;29.70;;;;;;8378650;28;20029;-55
2021/04/20 19:42:34;;;;;;;5.00;2.70;;;18.30;29.60;;;;;;8393885;28;20036;-55
2021/04/20 19:46:40;;;;;;;;;;;18.30;29.60;;;;;;8396243;28;20122;-55
2021/04/20 19:50:44;;;;;;;3.25;2.13;;;18.30;29.60;;;;;;8395273;28;20003;-54
2021/04/20 19:54:47;;;;;;;3.22;2.50;;;18.30;29.60;;;;;;8394018;28;20083;-56
2021/04/20 19:58:55;;;;;;;3.75;2.20;;;18.30;29.60;;;;;;8400055;28;20036;-55
2021/04/20 20:03:12;;;;;;;2.60;2.20;;;18.30;29.60;;;;;;8393487;28;20052;-55
2021/04/20 20:07:13;;;;;;;3.17;2.50;;;18.30;29.60;;;;;;8394498;28;20102;-55
2021/04/20 20:11:14;;;;;;;2.90;2.20;;;18.30;29.60;;;;;;8395110;28;20396;-55
2021/04/20 20:15:19;;;;;;;3.05;2.13;;;18.30;29.60;;;;;;8393333;28;20040;-55
2021/04/20 20:19:21;;;;;;;3.05;2.15;;;18.30;29.60;;;;;;8399742;28;20127;-55
2021/04/20 20:23:23;;;;;;;4.10;2.97;;;18.30;29.60;;;;;;8394769;28;20040;-54
2021/04/20 20:27:30;;;;;;;3.25;2.58;;;18.20;29.60;;;;;;8393140;28;20127;-56
2021/04/20 20:31:32;;;;;;;4.45;2.80;;;18.20;29.60;;;;;;8393126;28;20082;-55
2021/04/20 20:35:33;;;;;;;4.93;2.83;;;18.30;29.60;;;;;;8396447;28;20039;-55
2021/04/20 20:39:49;;;;;;;4.07;2.45;;;18.20;29.60;;;;;;8395150;28;20505;-55
2021/04/20 20:43:51;;;;;;;4.30;2.90;;;18.20;29.60;;;;;;8394067;28;20398;-56
2021/04/20 20:48:01;;;;;;;4.85;2.70;;;18.20;29.60;;;;;;8392804;28;20539;-53
2021/04/20 20:52:13;;;;;;;4.20;2.83;;;18.20;29.60;;;;;;8393987;28;20028;-54
2021/04/20 20:56:33;;;;;;;4.75;2.70;;;18.20;29.70;;;;;;8398218;28;20037;-55
2021/04/20 21:00:35;;;;;;;3.40;2.60;;;18.20;29.70;;;;;;8363465;28;20060;-55
2021/04/20 21:04:50;;;;;;;;;;;18.20;29.70;;;;;;8386595;28;20053;-54
2021/04/20 21:08:53;;;;;;;4.85;2.92;;;18.20;29.70;;;;;;8391855;28;20011;-54
2021/04/20 21:12:55;;;;;;;4.55;2.88;;;18.20;29.70;;;;;;8393545;28;20431;-55
2021/04/20 21:17:01;;;;;;;3.95;2.85;;;18.20;29.70;;;;;;8397862;28;20051;-55
2021/04/20 21:21:20;;;;;;;4.18;2.90;;;18.20;29.70;;;;;;8391578;28;20067;-55
2021/04/20 21:25:34;;;;;;;3.65;2.58;;;18.20;29.70;;;;;;8392677;28;20071;-55
2021/04/20 21:30:00;;;;;;;4.13;2.92;;;18.10;29.60;;;;;;8393075;28;20059;-55
2021/04/20 21:34:06;;;;;;;5.45;2.95;;;18.10;29.60;;;;;;8391250;28;20045;-55